sensor_id;sensor_type;location;lat;lon;timestamp;P1;durP1;ratioP1;P2;durP2;ratioP2
19733;SDS011;10018;51.230;7.860;2023-03-14T00:00:08;7.10;;;1.97;;
19733;SDS011;10018;51.230;7.860;2023-03-14T00:02:38;7.23;;;1.90;;
19733;SDS011;10018;51.230;7.860;2023-03-14T00:05:04;6.93;;;1.53;;
19733;SDS011;10018;51.230;7.860;2023-03-14T00:07:35;6.47;;;2.97;;
19733;SDS011;10018;51.230;7.860;2023-03-14T00:10:06;4.67;;;1.50;;
19733;SDS011;10018;51.230;7.860;2023-03-14T00:12:33;9.77;;;3.60;;
19733;SDS011;10018;51.230;7.860;2023-03-14T00:14:58;5.87;;;3.50;;
19733;SDS011;10018;51.230;7.860;2023-03-14T00:17:25;4.57;;;1.90;;
19733;SDS011;10018;51.230;7.860;2023-03-14T00:19:52;5.93;;;2.17;;
19733;SDS011;10018;51.230;7.860;2023-03-14T00:22:19;7.07;;;1.90;;
19733;SDS011;10018;51.230;7.860;2023-03-14T00:24:45;8.43;;;1.83;;
19733;SDS011;10018;51.230;7.860;2023-03-14T00:27:11;4.53;;;1.87;;
19733;SDS011;10018;51.230;7.860;2023-03-14T00:29:37;10.57;;;4.00;;
19733;SDS011;10018;51.230;7.860;2023-03-14T00:32:02;4.40;;;1.73;;
19733;SDS011;10018;51.230;7.860;2023-03-14T00:34:31;3.23;;;1.47;;
19733;SDS011;10018;51.230;7.860;2023-03-14T00:36:57;5.87;;;2.10;;
19733;SDS011;10018;51.230;7.860;2023-03-14T00:39:23;5.17;;;1.40;;
19733;SDS011;10018;51.230;7.860;2023-03-14T00:41:49;4.67;;;1.20;;
19733;SDS011;10018;51.230;7.860;2023-03-14T00:44:14;4.53;;;1.37;;
19733;SDS011;10018;51.230;7.860;2023-03-14T00:46:42;4.53;;;1.37;;
19733;SDS011;10018;51.230;7.860;2023-03-14T00:49:07;3.60;;;1.30;;
19733;SDS011;10018;51.230;7.860;2023-03-14T00:51:33;4.93;;;1.20;;
19733;SDS011;10018;51.230;7.860;2023-03-14T00:54:01;7.23;;;2.57;;
19733;SDS011;10018;51.230;7.860;2023-03-14T00:56:27;4.37;;;1.70;;
19733;SDS011;10018;51.230;7.860;2023-03-14T00:58:53;6.87;;;1.27;;
19733;SDS011;10018;51.230;7.860;2023-03-14T01:01:20;4.73;;;1.23;;
19733;SDS011;10018;51.230;7.860;2023-03-14T01:03:50;3.87;;;1.27;;
19733;SDS011;10018;51.230;7.860;2023-03-14T01:06:17;3.43;;;1.20;;
19733;SDS011;10018;51.230;7.860;2023-03-14T01:08:45;4.03;;;1.60;;
19733;SDS011;10018;51.230;7.860;2023-03-14T01:11:13;4.17;;;1.40;;
19733;SDS011;10018;51.230;7.860;2023-03-14T01:13:46;5.47;;;1.70;;
19733;SDS011;10018;51.230;7.860;2023-03-14T01:16:12;3.73;;;1.00;;
19733;SDS011;10018;51.230;7.860;2023-03-14T01:18:39;5.60;;;1.40;;
19733;SDS011;10018;51.230;7.860;2023-03-14T01:21:25;6.53;;;1.73;;
19733;SDS011;10018;51.230;7.860;2023-03-14T01:23:59;7.23;;;1.20;;
19733;SDS011;10018;51.230;7.860;2023-03-14T01:26:29;7.90;;;1.07;;
19733;SDS011;10018;51.230;7.860;2023-03-14T01:28:59;9.50;;;2.00;;
19733;SDS011;10018;51.230;7.860;2023-03-14T01:31:26;4.37;;;1.30;;
19733;SDS011;10018;51.230;7.860;2023-03-14T01:33:52;5.73;;;1.60;;
19733;SDS011;10018;51.230;7.860;2023-03-14T01:36:18;5.03;;;1.20;;
19733;SDS011;10018;51.230;7.860;2023-03-14T01:38:44;6.50;;;1.30;;
19733;SDS011;10018;51.230;7.860;2023-03-14T01:41:12;6.03;;;1.57;;
19733;SDS011;10018;51.230;7.860;2023-03-14T01:43:39;6.30;;;1.70;;
19733;SDS011;10018;51.230;7.860;2023-03-14T01:51:18;6.93;;;1.50;;
19733;SDS011;10018;51.230;7.860;2023-03-14T01:53:58;6.47;;;1.37;;
19733;SDS011;10018;51.230;7.860;2023-03-14T01:56:29;5.60;;;1.23;;
19733;SDS011;10018;51.230;7.860;2023-03-14T01:58:56;6.17;;;1.37;;
19733;SDS011;10018;51.230;7.860;2023-03-14T02:01:23;5.53;;;1.30;;
19733;SDS011;10018;51.230;7.860;2023-03-14T02:03:52;9.60;;;1.93;;
19733;SDS011;10018;51.230;7.860;2023-03-14T02:06:21;6.47;;;1.40;;
19733;SDS011;10018;51.230;7.860;2023-03-14T02:08:53;7.43;;;1.73;;
19733;SDS011;10018;51.230;7.860;2023-03-14T02:11:26;2.53;;;0.53;;
19733;SDS011;10018;51.230;7.860;2023-03-14T02:13:54;3.53;;;0.77;;
19733;SDS011;10018;51.230;7.860;2023-03-14T02:16:21;4.17;;;1.00;;
19733;SDS011;10018;51.230;7.860;2023-03-14T02:18:47;3.40;;;0.87;;
19733;SDS011;10018;51.230;7.860;2023-03-14T02:24:17;3.20;;;0.50;;
19733;SDS011;10018;51.230;7.860;2023-03-14T02:29:33;3.03;;;0.63;;
19733;SDS011;10018;51.230;7.860;2023-03-14T02:32:04;1.47;;;0.60;;
19733;SDS011;10018;51.230;7.860;2023-03-14T02:34:30;1.67;;;0.40;;
19733;SDS011;10018;51.230;7.860;2023-03-14T02:36:56;1.50;;;0.40;;
19733;SDS011;10018;51.230;7.860;2023-03-14T02:39:35;2.67;;;0.47;;
19733;SDS011;10018;51.230;7.860;2023-03-14T02:42:05;1.80;;;0.40;;
19733;SDS011;10018;51.230;7.860;2023-03-14T02:44:30;3.37;;;0.50;;
19733;SDS011;10018;51.230;7.860;2023-03-14T02:46:56;3.13;;;0.50;;
19733;SDS011;10018;51.230;7.860;2023-03-14T02:49:22;2.23;;;0.60;;
19733;SDS011;10018;51.230;7.860;2023-03-14T02:51:48;2.07;;;0.50;;
19733;SDS011;10018;51.230;7.860;2023-03-14T02:54:15;2.40;;;0.43;;
19733;SDS011;10018;51.230;7.860;2023-03-14T02:56:41;2.33;;;0.60;;
19733;SDS011;10018;51.230;7.860;2023-03-14T02:59:09;1.13;;;0.40;;
19733;SDS011;10018;51.230;7.860;2023-03-14T03:01:35;2.30;;;0.63;;
19733;SDS011;10018;51.230;7.860;2023-03-14T03:04:00;1.53;;;0.50;;
19733;SDS011;10018;51.230;7.860;2023-03-14T03:06:26;2.83;;;0.53;;
19733;SDS011;10018;51.230;7.860;2023-03-14T03:08:51;3.10;;;0.70;;
19733;SDS011;10018;51.230;7.860;2023-03-14T03:11:17;2.90;;;0.97;;
19733;SDS011;10018;51.230;7.860;2023-03-14T03:13:43;6.30;;;0.70;;
19733;SDS011;10018;51.230;7.860;2023-03-14T03:16:08;4.30;;;0.83;;
19733;SDS011;10018;51.230;7.860;2023-03-14T03:18:34;4.30;;;0.97;;
19733;SDS011;10018;51.230;7.860;2023-03-14T03:21:00;3.57;;;0.80;;
19733;SDS011;10018;51.230;7.860;2023-03-14T03:23:27;3.60;;;0.90;;
19733;SDS011;10018;51.230;7.860;2023-03-14T03:25:53;3.20;;;0.90;;
19733;SDS011;10018;51.230;7.860;2023-03-14T03:28:21;5.37;;;0.90;;
19733;SDS011;10018;51.230;7.860;2023-03-14T03:30:46;4.23;;;0.87;;
19733;SDS011;10018;51.230;7.860;2023-03-14T03:33:12;5.70;;;0.90;;
19733;SDS011;10018;51.230;7.860;2023-03-14T03:35:42;3.80;;;0.93;;
19733;SDS011;10018;51.230;7.860;2023-03-14T03:38:14;2.57;;;0.80;;
19733;SDS011;10018;51.230;7.860;2023-03-14T03:40:40;4.97;;;1.00;;
19733;SDS011;10018;51.230;7.860;2023-03-14T03:43:06;2.43;;;0.80;;
19733;SDS011;10018;51.230;7.860;2023-03-14T03:45:31;5.63;;;1.30;;
19733;SDS011;10018;51.230;7.860;2023-03-14T03:47:57;4.23;;;1.20;;
19733;SDS011;10018;51.230;7.860;2023-03-14T03:50:22;9.67;;;1.30;;
19733;SDS011;10018;51.230;7.860;2023-03-14T03:52:48;5.23;;;1.00;;
19733;SDS011;10018;51.230;7.860;2023-03-14T03:55:14;5.47;;;1.20;;
19733;SDS011;10018;51.230;7.860;2023-03-14T03:57:39;5.17;;;1.03;;
19733;SDS011;10018;51.230;7.860;2023-03-14T04:00:05;8.30;;;1.30;;
19733;SDS011;10018;51.230;7.860;2023-03-14T04:02:33;8.10;;;1.30;;
19733;SDS011;10018;51.230;7.860;2023-03-14T04:04:59;6.40;;;1.30;;
19733;SDS011;10018;51.230;7.860;2023-03-14T04:07:25;6.17;;;1.30;;
19733;SDS011;10018;51.230;7.860;2023-03-14T04:09:53;5.47;;;1.40;;
19733;SDS011;10018;51.230;7.860;2023-03-14T04:12:18;8.60;;;1.33;;
19733;SDS011;10018;51.230;7.860;2023-03-14T04:14:44;7.73;;;1.70;;
19733;SDS011;10018;51.230;7.860;2023-03-14T04:17:10;8.67;;;1.40;;
19733;SDS011;10018;51.230;7.860;2023-03-14T04:19:38;5.87;;;1.40;;
19733;SDS011;10018;51.230;7.860;2023-03-14T04:22:04;5.20;;;1.30;;
19733;SDS011;10018;51.230;7.860;2023-03-14T04:24:29;7.30;;;1.37;;
19733;SDS011;10018;51.230;7.860;2023-03-14T04:26:57;8.07;;;1.60;;
19733;SDS011;10018;51.230;7.860;2023-03-14T04:29:22;6.63;;;1.50;;
19733;SDS011;10018;51.230;7.860;2023-03-14T04:31:48;10.50;;;1.63;;
19733;SDS011;10018;51.230;7.860;2023-03-14T04:34:14;7.03;;;1.70;;
19733;SDS011;10018;51.230;7.860;2023-03-14T04:36:39;6.47;;;2.00;;
19733;SDS011;10018;51.230;7.860;2023-03-14T04:39:07;8.53;;;2.10;;
19733;SDS011;10018;51.230;7.860;2023-03-14T04:41:33;6.37;;;1.97;;
19733;SDS011;10018;51.230;7.860;2023-03-14T04:43:58;9.77;;;1.53;;
19733;SDS011;10018;51.230;7.860;2023-03-14T04:46:24;7.57;;;1.47;;
19733;SDS011;10018;51.230;7.860;2023-03-14T04:48:49;7.60;;;2.10;;
19733;SDS011;10018;51.230;7.860;2023-03-14T04:51:15;7.63;;;1.47;;
19733;SDS011;10018;51.230;7.860;2023-03-14T04:53:40;10.47;;;1.60;;
19733;SDS011;10018;51.230;7.860;2023-03-14T04:56:06;6.43;;;1.80;;
19733;SDS011;10018;51.230;7.860;2023-03-14T04:58:32;3.63;;;1.57;;
19733;SDS011;10018;51.230;7.860;2023-03-14T05:01:01;6.03;;;1.50;;
19733;SDS011;10018;51.230;7.860;2023-03-14T05:03:28;9.30;;;1.70;;
19733;SDS011;10018;51.230;7.860;2023-03-14T05:05:54;9.07;;;1.60;;
19733;SDS011;10018;51.230;7.860;2023-03-14T05:08:20;6.90;;;1.70;;
19733;SDS011;10018;51.230;7.860;2023-03-14T05:10:51;8.27;;;1.80;;
19733;SDS011;10018;51.230;7.860;2023-03-14T05:13:18;7.70;;;1.90;;
19733;SDS011;10018;51.230;7.860;2023-03-14T05:15:44;9.80;;;1.80;;
19733;SDS011;10018;51.230;7.860;2023-03-14T05:18:09;9.53;;;1.90;;
19733;SDS011;10018;51.230;7.860;2023-03-14T05:20:35;8.63;;;1.87;;
19733;SDS011;10018;51.230;7.860;2023-03-14T05:23:00;4.97;;;1.63;;
19733;SDS011;10018;51.230;7.860;2023-03-14T05:25:26;8.53;;;2.30;;
19733;SDS011;10018;51.230;7.860;2023-03-14T05:27:53;8.97;;;1.70;;
19733;SDS011;10018;51.230;7.860;2023-03-14T05:30:20;6.80;;;1.83;;
19733;SDS011;10018;51.230;7.860;2023-03-14T05:32:46;7.43;;;1.70;;
19733;SDS011;10018;51.230;7.860;2023-03-14T05:35:12;8.03;;;1.80;;
19733;SDS011;10018;51.230;7.860;2023-03-14T05:37:38;5.23;;;1.40;;
19733;SDS011;10018;51.230;7.860;2023-03-14T05:40:04;5.87;;;1.40;;
19733;SDS011;10018;51.230;7.860;2023-03-14T05:42:31;7.40;;;1.23;;
19733;SDS011;10018;51.230;7.860;2023-03-14T05:44:57;9.20;;;1.93;;
19733;SDS011;10018;51.230;7.860;2023-03-14T05:47:23;6.80;;;1.70;;
19733;SDS011;10018;51.230;7.860;2023-03-14T05:49:49;4.27;;;1.27;;
19733;SDS011;10018;51.230;7.860;2023-03-14T05:52:14;5.43;;;1.20;;
19733;SDS011;10018;51.230;7.860;2023-03-14T05:54:40;5.07;;;1.40;;
19733;SDS011;10018;51.230;7.860;2023-03-14T05:57:05;6.50;;;1.53;;
19733;SDS011;10018;51.230;7.860;2023-03-14T05:59:31;5.17;;;1.27;;
19733;SDS011;10018;51.230;7.860;2023-03-14T06:01:57;5.13;;;1.23;;
19733;SDS011;10018;51.230;7.860;2023-03-14T06:04:22;4.63;;;1.10;;
19733;SDS011;10018;51.230;7.860;2023-03-14T06:06:48;2.47;;;0.70;;
19733;SDS011;10018;51.230;7.860;2023-03-14T06:09:16;5.70;;;1.13;;
19733;SDS011;10018;51.230;7.860;2023-03-14T06:11:44;4.87;;;1.10;;
19733;SDS011;10018;51.230;7.860;2023-03-14T06:14:11;3.73;;;0.80;;
19733;SDS011;10018;51.230;7.860;2023-03-14T06:16:36;2.93;;;1.03;;
19733;SDS011;10018;51.230;7.860;2023-03-14T06:19:02;3.70;;;0.90;;
19733;SDS011;10018;51.230;7.860;2023-03-14T06:21:28;3.03;;;0.70;;
19733;SDS011;10018;51.230;7.860;2023-03-14T06:23:53;2.47;;;0.70;;
19733;SDS011;10018;51.230;7.860;2023-03-14T06:26:19;3.00;;;0.80;;
19733;SDS011;10018;51.230;7.860;2023-03-14T06:28:44;2.97;;;0.70;;
19733;SDS011;10018;51.230;7.860;2023-03-14T06:31:10;2.80;;;0.60;;
19733;SDS011;10018;51.230;7.860;2023-03-14T06:33:36;1.80;;;0.50;;
19733;SDS011;10018;51.230;7.860;2023-03-14T06:36:01;1.73;;;0.50;;
19733;SDS011;10018;51.230;7.860;2023-03-14T06:38:27;2.27;;;0.57;;
19733;SDS011;10018;51.230;7.860;2023-03-14T06:40:52;0.90;;;0.30;;
19733;SDS011;10018;51.230;7.860;2023-03-14T06:43:18;1.07;;;0.40;;
19733;SDS011;10018;51.230;7.860;2023-03-14T06:45:43;1.07;;;0.33;;
19733;SDS011;10018;51.230;7.860;2023-03-14T06:48:09;2.50;;;0.60;;
19733;SDS011;10018;51.230;7.860;2023-03-14T06:50:35;0.60;;;0.37;;
19733;SDS011;10018;51.230;7.860;2023-03-14T06:53:01;1.17;;;0.40;;
19733;SDS011;10018;51.230;7.860;2023-03-14T06:55:26;1.20;;;0.40;;
19733;SDS011;10018;51.230;7.860;2023-03-14T06:57:52;3.00;;;0.43;;
19733;SDS011;10018;51.230;7.860;2023-03-14T07:00:18;1.03;;;0.47;;
19733;SDS011;10018;51.230;7.860;2023-03-14T07:02:44;0.60;;;0.30;;
19733;SDS011;10018;51.230;7.860;2023-03-14T07:05:09;1.03;;;0.30;;
19733;SDS011;10018;51.230;7.860;2023-03-14T07:07:37;1.23;;;0.40;;
19733;SDS011;10018;51.230;7.860;2023-03-14T07:10:03;0.70;;;0.40;;
19733;SDS011;10018;51.230;7.860;2023-03-14T07:12:33;1.77;;;0.60;;
19733;SDS011;10018;51.230;7.860;2023-03-14T07:14:59;0.60;;;0.40;;
19733;SDS011;10018;51.230;7.860;2023-03-14T07:17:27;1.17;;;0.50;;
19733;SDS011;10018;51.230;7.860;2023-03-14T07:19:52;0.80;;;0.50;;
19733;SDS011;10018;51.230;7.860;2023-03-14T07:22:18;1.57;;;0.40;;
19733;SDS011;10018;51.230;7.860;2023-03-14T07:24:43;0.60;;;0.30;;
19733;SDS011;10018;51.230;7.860;2023-03-14T07:27:09;2.97;;;0.30;;
19733;SDS011;10018;51.230;7.860;2023-03-14T07:29:34;2.73;;;0.30;;
19733;SDS011;10018;51.230;7.860;2023-03-14T07:32:00;0.67;;;0.30;;
19733;SDS011;10018;51.230;7.860;2023-03-14T07:34:25;2.60;;;0.60;;
19733;SDS011;10018;51.230;7.860;2023-03-14T07:36:51;1.60;;;0.53;;
19733;SDS011;10018;51.230;7.860;2023-03-14T07:39:16;0.93;;;0.40;;
19733;SDS011;10018;51.230;7.860;2023-03-14T07:41:42;2.10;;;0.63;;
19733;SDS011;10018;51.230;7.860;2023-03-14T07:44:07;2.60;;;0.60;;
19733;SDS011;10018;51.230;7.860;2023-03-14T07:46:33;0.80;;;0.30;;
19733;SDS011;10018;51.230;7.860;2023-03-14T07:49:01;2.67;;;0.60;;
19733;SDS011;10018;51.230;7.860;2023-03-14T07:51:31;0.70;;;0.30;;
19733;SDS011;10018;51.230;7.860;2023-03-14T07:53:57;1.60;;;0.57;;
19733;SDS011;10018;51.230;7.860;2023-03-14T07:56:22;0.60;;;0.30;;
19733;SDS011;10018;51.230;7.860;2023-03-14T07:58:50;0.60;;;0.30;;
19733;SDS011;10018;51.230;7.860;2023-03-14T08:01:15;0.70;;;0.20;;
19733;SDS011;10018;51.230;7.860;2023-03-14T08:03:41;0.70;;;0.30;;
19733;SDS011;10018;51.230;7.860;2023-03-14T08:06:06;0.33;;;0.20;;
19733;SDS011;10018;51.230;7.860;2023-03-14T08:08:32;0.30;;;0.20;;
19733;SDS011;10018;51.230;7.860;2023-03-14T08:11:02;0.80;;;0.20;;
19733;SDS011;10018;51.230;7.860;2023-03-14T08:13:33;1.33;;;0.23;;
19733;SDS011;10018;51.230;7.860;2023-03-14T08:15:59;0.40;;;0.23;;
19733;SDS011;10018;51.230;7.860;2023-03-14T08:18:24;0.40;;;0.30;;
19733;SDS011;10018;51.230;7.860;2023-03-14T08:20:50;0.60;;;0.33;;
19733;SDS011;10018;51.230;7.860;2023-03-14T08:23:15;0.70;;;0.30;;
19733;SDS011;10018;51.230;7.860;2023-03-14T08:25:41;0.30;;;0.27;;
19733;SDS011;10018;51.230;7.860;2023-03-14T08:28:07;0.80;;;0.40;;
19733;SDS011;10018;51.230;7.860;2023-03-14T08:30:32;0.90;;;0.40;;
19733;SDS011;10018;51.230;7.860;2023-03-14T08:33:00;0.70;;;0.60;;
19733;SDS011;10018;51.230;7.860;2023-03-14T08:35:28;0.60;;;0.40;;
19733;SDS011;10018;51.230;7.860;2023-03-14T08:37:54;0.43;;;0.37;;
19733;SDS011;10018;51.230;7.860;2023-03-14T08:40:20;1.73;;;0.60;;
19733;SDS011;10018;51.230;7.860;2023-03-14T08:42:46;1.63;;;0.63;;
19733;SDS011;10018;51.230;7.860;2023-03-14T08:45:12;3.27;;;1.47;;
19733;SDS011;10018;51.230;7.860;2023-03-14T08:47:39;2.40;;;1.50;;
19733;SDS011;10018;51.230;7.860;2023-03-14T08:50:05;1.70;;;0.80;;
19733;SDS011;10018;51.230;7.860;2023-03-14T08:52:35;1.30;;;0.70;;
19733;SDS011;10018;51.230;7.860;2023-03-14T08:55:02;0.83;;;0.60;;
19733;SDS011;10018;51.230;7.860;2023-03-14T08:57:29;1.00;;;0.60;;
19733;SDS011;10018;51.230;7.860;2023-03-14T08:59:54;0.67;;;0.50;;
19733;SDS011;10018;51.230;7.860;2023-03-14T09:02:20;0.87;;;0.47;;
19733;SDS011;10018;51.230;7.860;2023-03-14T09:04:47;0.50;;;0.40;;
19733;SDS011;10018;51.230;7.860;2023-03-14T09:07:12;0.70;;;0.40;;
19733;SDS011;10018;51.230;7.860;2023-03-14T09:09:40;0.90;;;0.50;;
19733;SDS011;10018;51.230;7.860;2023-03-14T09:12:06;0.70;;;0.40;;
19733;SDS011;10018;51.230;7.860;2023-03-14T09:14:32;0.47;;;0.40;;
19733;SDS011;10018;51.230;7.860;2023-03-14T09:16:57;1.67;;;0.30;;
19733;SDS011;10018;51.230;7.860;2023-03-14T09:19:23;0.80;;;0.50;;
19733;SDS011;10018;51.230;7.860;2023-03-14T09:21:49;1.27;;;0.53;;
19733;SDS011;10018;51.230;7.860;2023-03-14T09:24:15;0.60;;;0.40;;
19733;SDS011;10018;51.230;7.860;2023-03-14T09:26:41;0.40;;;0.37;;
19733;SDS011;10018;51.230;7.860;2023-03-14T09:29:07;0.70;;;0.40;;
19733;SDS011;10018;51.230;7.860;2023-03-14T09:31:33;0.60;;;0.40;;
19733;SDS011;10018;51.230;7.860;2023-03-14T09:34:00;0.80;;;0.40;;
19733;SDS011;10018;51.230;7.860;2023-03-14T09:36:26;0.87;;;0.43;;
19733;SDS011;10018;51.230;7.860;2023-03-14T09:38:52;0.90;;;0.40;;
19733;SDS011;10018;51.230;7.860;2023-03-14T09:41:18;0.40;;;0.30;;
19733;SDS011;10018;51.230;7.860;2023-03-14T09:43:49;1.00;;;0.50;;
19733;SDS011;10018;51.230;7.860;2023-03-14T09:46:35;0.60;;;0.50;;
19733;SDS011;10018;51.230;7.860;2023-03-14T09:49:05;0.63;;;0.30;;
19733;SDS011;10018;51.230;7.860;2023-03-14T09:51:42;1.40;;;0.40;;
19733;SDS011;10018;51.230;7.860;2023-03-14T09:54:15;0.80;;;0.40;;
19733;SDS011;10018;51.230;7.860;2023-03-14T09:56:48;0.67;;;0.40;;
19733;SDS011;10018;51.230;7.860;2023-03-14T09:59:14;1.13;;;0.43;;
19733;SDS011;10018;51.230;7.860;2023-03-14T10:01:41;2.30;;;0.73;;
19733;SDS011;10018;51.230;7.860;2023-03-14T10:04:07;0.90;;;0.50;;
19733;SDS011;10018;51.230;7.860;2023-03-14T10:06:39;1.83;;;0.50;;
19733;SDS011;10018;51.230;7.860;2023-03-14T10:09:05;0.83;;;0.47;;
19733;SDS011;10018;51.230;7.860;2023-03-14T10:11:30;1.13;;;0.50;;
19733;SDS011;10018;51.230;7.860;2023-03-14T10:14:04;1.20;;;0.53;;
19733;SDS011;10018;51.230;7.860;2023-03-14T10:16:40;1.50;;;0.60;;
19733;SDS011;10018;51.230;7.860;2023-03-14T10:19:15;1.50;;;0.60;;
19733;SDS011;10018;51.230;7.860;2023-03-14T10:21:42;0.60;;;0.50;;
19733;SDS011;10018;51.230;7.860;2023-03-14T10:26:53;0.90;;;0.70;;
19733;SDS011;10018;51.230;7.860;2023-03-14T10:29:21;1.47;;;0.70;;
19733;SDS011;10018;51.230;7.860;2023-03-14T10:31:53;4.23;;;0.87;;
19733;SDS011;10018;51.230;7.860;2023-03-14T10:34:25;1.90;;;0.70;;
19733;SDS011;10018;51.230;7.860;2023-03-14T10:36:58;1.50;;;0.80;;
19733;SDS011;10018;51.230;7.860;2023-03-14T10:39:51;1.83;;;0.80;;
19733;SDS011;10018;51.230;7.860;2023-03-14T10:44:55;1.07;;;0.53;;
19733;SDS011;10018;51.230;7.860;2023-03-14T10:47:24;1.10;;;0.40;;
19733;SDS011;10018;51.230;7.860;2023-03-14T10:49:53;1.93;;;0.40;;
19733;SDS011;10018;51.230;7.860;2023-03-14T10:52:26;1.50;;;0.40;;
19733;SDS011;10018;51.230;7.860;2023-03-14T10:54:58;1.10;;;0.50;;
19733;SDS011;10018;51.230;7.860;2023-03-14T10:57:26;2.27;;;1.10;;
19733;SDS011;10018;51.230;7.860;2023-03-14T10:59:52;1.67;;;0.83;;
19733;SDS011;10018;51.230;7.860;2023-03-14T11:07:57;1.53;;;0.83;;
19733;SDS011;10018;51.230;7.860;2023-03-14T11:10:33;2.40;;;1.20;;
19733;SDS011;10018;51.230;7.860;2023-03-14T11:18:40;2.23;;;1.03;;
19733;SDS011;10018;51.230;7.860;2023-03-14T11:29:45;3.13;;;1.20;;
19733;SDS011;10018;51.230;7.860;2023-03-14T11:40:40;1.90;;;1.10;;
19733;SDS011;10018;51.230;7.860;2023-03-14T11:45:36;0.70;;;0.60;;
19733;SDS011;10018;51.230;7.860;2023-03-14T11:48:17;2.47;;;0.77;;
19733;SDS011;10018;51.230;7.860;2023-03-14T11:50:55;0.93;;;0.50;;
19733;SDS011;10018;51.230;7.860;2023-03-14T11:53:33;1.00;;;0.50;;
19733;SDS011;10018;51.230;7.860;2023-03-14T11:56:03;1.83;;;1.00;;
19733;SDS011;10018;51.230;7.860;2023-03-14T11:58:30;1.77;;;0.60;;
19733;SDS011;10018;51.230;7.860;2023-03-14T12:01:01;1.97;;;0.70;;
19733;SDS011;10018;51.230;7.860;2023-03-14T12:06:40;2.03;;;0.90;;
19733;SDS011;10018;51.230;7.860;2023-03-14T12:09:16;2.83;;;1.10;;
19733;SDS011;10018;51.230;7.860;2023-03-14T12:11:49;2.03;;;1.10;;
19733;SDS011;10018;51.230;7.860;2023-03-14T12:14:36;4.50;;;1.30;;
19733;SDS011;10018;51.230;7.860;2023-03-14T12:20:34;3.13;;;1.80;;
19733;SDS011;10018;51.230;7.860;2023-03-14T12:22:43;2.90;;;1.50;;
19733;SDS011;10018;51.230;7.860;2023-03-14T12:25:17;2.73;;;1.50;;
19733;SDS011;10018;51.230;7.860;2023-03-14T12:33:10;1.93;;;1.23;;
19733;SDS011;10018;51.230;7.860;2023-03-14T12:38:16;1.87;;;1.10;;
19733;SDS011;10018;51.230;7.860;2023-03-14T12:40:57;4.93;;;1.50;;
19733;SDS011;10018;51.230;7.860;2023-03-14T12:43:28;2.67;;;1.17;;
19733;SDS011;10018;51.230;7.860;2023-03-14T12:46:37;2.60;;;1.10;;
19733;SDS011;10018;51.230;7.860;2023-03-14T12:48:53;3.33;;;1.50;;
19733;SDS011;10018;51.230;7.860;2023-03-14T12:51:28;3.10;;;1.77;;
19733;SDS011;10018;51.230;7.860;2023-03-14T12:56:45;4.30;;;2.10;;
19733;SDS011;10018;51.230;7.860;2023-03-14T13:01:54;4.57;;;2.00;;
19733;SDS011;10018;51.230;7.860;2023-03-14T13:04:48;4.80;;;1.60;;
19733;SDS011;10018;51.230;7.860;2023-03-14T13:08:31;3.90;;;1.77;;
19733;SDS011;10018;51.230;7.860;2023-03-14T13:10:26;8.43;;;2.00;;
19733;SDS011;10018;51.230;7.860;2023-03-14T13:13:02;4.77;;;1.80;;
19733;SDS011;10018;51.230;7.860;2023-03-14T13:15:45;5.60;;;2.20;;
19733;SDS011;10018;51.230;7.860;2023-03-14T13:18:17;13.00;;;3.70;;
19733;SDS011;10018;51.230;7.860;2023-03-14T13:26:20;10.63;;;4.37;;
19733;SDS011;10018;51.230;7.860;2023-03-14T13:28:48;12.97;;;6.00;;
19733;SDS011;10018;51.230;7.860;2023-03-14T13:31:21;10.80;;;5.00;;
19733;SDS011;10018;51.230;7.860;2023-03-14T13:34:01;9.90;;;3.47;;
19733;SDS011;10018;51.230;7.860;2023-03-14T13:36:29;9.47;;;3.10;;
19733;SDS011;10018;51.230;7.860;2023-03-14T13:38:58;7.07;;;2.37;;
19733;SDS011;10018;51.230;7.860;2023-03-14T13:41:26;8.97;;;3.20;;
19733;SDS011;10018;51.230;7.860;2023-03-14T13:44:03;6.07;;;2.00;;
19733;SDS011;10018;51.230;7.860;2023-03-14T13:46:33;5.97;;;1.50;;
19733;SDS011;10018;51.230;7.860;2023-03-14T13:49:01;7.23;;;1.63;;
19733;SDS011;10018;51.230;7.860;2023-03-14T13:51:29;7.83;;;1.50;;
19733;SDS011;10018;51.230;7.860;2023-03-14T13:53:58;7.53;;;2.17;;
19733;SDS011;10018;51.230;7.860;2023-03-14T13:56:26;9.20;;;1.63;;
19733;SDS011;10018;51.230;7.860;2023-03-14T13:58:56;6.97;;;1.77;;
19733;SDS011;10018;51.230;7.860;2023-03-14T14:03:56;7.17;;;2.23;;
19733;SDS011;10018;51.230;7.860;2023-03-14T14:07:05;8.27;;;2.30;;
19733;SDS011;10018;51.230;7.860;2023-03-14T14:09:18;3.13;;;1.00;;
19733;SDS011;10018;51.230;7.860;2023-03-14T14:11:50;4.60;;;1.47;;
19733;SDS011;10018;51.230;7.860;2023-03-14T14:14:33;5.03;;;1.37;;
19733;SDS011;10018;51.230;7.860;2023-03-14T14:17:05;9.43;;;1.93;;
19733;SDS011;10018;51.230;7.860;2023-03-14T14:19:33;9.83;;;1.60;;
19733;SDS011;10018;51.230;7.860;2023-03-14T14:22:00;9.90;;;1.63;;
19733;SDS011;10018;51.230;7.860;2023-03-14T14:24:28;7.50;;;1.93;;
19733;SDS011;10018;51.230;7.860;2023-03-14T14:27:01;10.97;;;2.53;;
19733;SDS011;10018;51.230;7.860;2023-03-14T14:29:38;10.27;;;1.80;;
19733;SDS011;10018;51.230;7.860;2023-03-14T14:34:45;13.77;;;2.23;;
19733;SDS011;10018;51.230;7.860;2023-03-14T14:37:41;16.77;;;2.50;;
19733;SDS011;10018;51.230;7.860;2023-03-14T14:42:45;14.33;;;2.73;;
19733;SDS011;10018;51.230;7.860;2023-03-14T14:45:13;17.80;;;2.93;;
19733;SDS011;10018;51.230;7.860;2023-03-14T14:53:34;12.77;;;3.13;;
19733;SDS011;10018;51.230;7.860;2023-03-14T14:56:15;10.37;;;2.70;;
19733;SDS011;10018;51.230;7.860;2023-03-14T14:58:44;10.03;;;2.30;;
19733;SDS011;10018;51.230;7.860;2023-03-14T15:03:41;14.53;;;2.90;;
19733;SDS011;10018;51.230;7.860;2023-03-14T15:06:08;9.30;;;2.57;;
19733;SDS011;10018;51.230;7.860;2023-03-14T15:08:37;12.17;;;3.10;;
19733;SDS011;10018;51.230;7.860;2023-03-14T15:11:03;10.80;;;2.10;;
19733;SDS011;10018;51.230;7.860;2023-03-14T15:13:28;13.30;;;2.40;;
19733;SDS011;10018;51.230;7.860;2023-03-14T15:15:54;10.63;;;2.20;;
19733;SDS011;10018;51.230;7.860;2023-03-14T15:18:23;10.10;;;1.87;;
19733;SDS011;10018;51.230;7.860;2023-03-14T15:20:50;15.37;;;3.33;;
19733;SDS011;10018;51.230;7.860;2023-03-14T15:23:18;16.73;;;4.30;;
19733;SDS011;10018;51.230;7.860;2023-03-14T15:25:44;15.77;;;3.40;;
19733;SDS011;10018;51.230;7.860;2023-03-14T15:28:19;15.67;;;3.90;;
19733;SDS011;10018;51.230;7.860;2023-03-14T15:30:55;10.90;;;2.37;;
19733;SDS011;10018;51.230;7.860;2023-03-14T15:33:26;14.10;;;2.47;;
19733;SDS011;10018;51.230;7.860;2023-03-14T15:35:55;12.77;;;3.03;;
19733;SDS011;10018;51.230;7.860;2023-03-14T15:38:22;13.37;;;2.40;;
19733;SDS011;10018;51.230;7.860;2023-03-14T15:40:51;18.13;;;3.23;;
19733;SDS011;10018;51.230;7.860;2023-03-14T15:43:17;12.70;;;2.80;;
19733;SDS011;10018;51.230;7.860;2023-03-14T15:45:44;13.03;;;2.43;;
19733;SDS011;10018;51.230;7.860;2023-03-14T15:48:17;15.17;;;2.63;;
19733;SDS011;10018;51.230;7.860;2023-03-14T15:50:44;18.43;;;2.97;;
19733;SDS011;10018;51.230;7.860;2023-03-14T15:53:10;16.00;;;2.77;;
19733;SDS011;10018;51.230;7.860;2023-03-14T15:55:39;13.60;;;2.53;;
19733;SDS011;10018;51.230;7.860;2023-03-14T15:58:04;16.53;;;3.10;;
19733;SDS011;10018;51.230;7.860;2023-03-14T16:00:30;11.90;;;2.70;;
19733;SDS011;10018;51.230;7.860;2023-03-14T16:02:59;16.50;;;3.00;;
19733;SDS011;10018;51.230;7.860;2023-03-14T16:05:25;16.00;;;2.97;;
19733;SDS011;10018;51.230;7.860;2023-03-14T16:07:52;12.73;;;2.60;;
19733;SDS011;10018;51.230;7.860;2023-03-14T16:10:18;13.70;;;2.63;;
19733;SDS011;10018;51.230;7.860;2023-03-14T16:12:44;16.13;;;2.60;;
19733;SDS011;10018;51.230;7.860;2023-03-14T16:15:09;16.47;;;2.87;;
19733;SDS011;10018;51.230;7.860;2023-03-14T16:17:35;10.97;;;2.43;;
19733;SDS011;10018;51.230;7.860;2023-03-14T16:20:03;13.37;;;2.27;;